createdAt,value
2023-03-01T00:01:43.456Z,62.44
2023-03-01T00:04:11.717Z,61.39
2023-03-01T00:06:39.890Z,58.88
2023-03-01T00:09:08.062Z,55.42
2023-03-01T00:11:36.337Z,54.92
2023-03-01T00:14:07.890Z,55.27
2023-03-01T00:16:40.830Z,55.73
2023-03-01T00:19:14.268Z,56.58
2023-03-01T00:21:42.543Z,57.61
2023-03-01T00:24:12.736Z,58.87
2023-03-01T00:26:41.240Z,59.70
2023-03-01T00:29:09.414Z,63.93
2023-03-01T00:31:37.589Z,73.52
2023-03-01T00:34:07.528Z,74.74
2023-03-01T00:36:37.979Z,71.21
2023-03-01T00:39:11.221Z,65.73
2023-03-01T00:41:39.904Z,64.42
2023-03-01T00:44:08.280Z,59.18
2023-03-01T00:46:37.725Z,52.86
2023-03-01T00:49:06.687Z,51.73
2023-03-01T00:51:34.868Z,52.06
2023-03-01T00:54:03.883Z,52.78
2023-03-01T00:56:32.728Z,53.64
2023-03-01T00:59:02.241Z,54.65
2023-03-01T01:01:31.692Z,55.56
2023-03-01T01:04:06.055Z,57.18
2023-03-01T01:06:37.165Z,57.69
2023-03-01T01:09:07.739Z,58.69
2023-03-01T01:11:37.547Z,59.56
2023-03-01T01:14:05.916Z,57.45
2023-03-01T01:16:34.536Z,60.65
2023-03-01T01:19:03.787Z,66.43
2023-03-01T01:21:32.468Z,74.24
2023-03-01T01:24:00.848Z,73.93
2023-03-01T01:26:30.990Z,71.52
2023-03-01T01:29:00.774Z,68.93
2023-03-01T01:31:29.841Z,66.61
2023-03-01T01:34:00.290Z,65.64
2023-03-01T01:36:29.147Z,58.81
2023-03-01T01:38:58.080Z,52.14
2023-03-01T01:41:27.578Z,50.81
2023-03-01T01:44:17.253Z,51.22
2023-03-01T01:46:49.456Z,51.85
2023-03-01T01:49:37.660Z,53.57
2023-03-01T01:52:08.617Z,53.62
2023-03-01T01:55:16.198Z,55.12
2023-03-01T01:57:50.305Z,55.32
2023-03-01T02:00:30.255Z,57.60
2023-03-01T02:03:09.088Z,58.38
2023-03-01T02:05:55.384Z,59.25
2023-03-01T02:08:27.741Z,66.05
2023-03-01T02:10:57.023Z,76.08
2023-03-01T02:13:25.218Z,73.67
2023-03-01T02:15:53.600Z,69.74
2023-03-01T02:18:23.602Z,66.41
2023-03-01T02:21:02.583Z,63.82
2023-03-01T02:23:31.114Z,57.59
2023-03-01T02:26:15.072Z,51.95
2023-03-01T02:28:44.762Z,50.80
2023-03-01T02:31:35.694Z,51.36
2023-03-01T02:34:07.726Z,51.23
2023-03-01T02:36:38.557Z,50.00
2023-03-01T02:39:08.481Z,52.72
2023-03-01T02:41:39.022Z,51.17
2023-03-01T02:44:07.481Z,54.41
2023-03-01T02:46:44.875Z,56.20
2023-03-01T02:49:23.489Z,57.56
2023-03-01T02:52:44.714Z,58.69
2023-03-01T02:55:15.816Z,58.75
2023-03-01T02:57:46.592Z,64.54
2023-03-01T03:00:20.699Z,74.88
2023-03-01T03:02:53.669Z,79.34
2023-03-01T03:05:27.474Z,73.65
2023-03-01T03:07:59.377Z,70.05
2023-03-01T03:10:34.163Z,66.76
2023-03-01T03:13:08.276Z,59.31
2023-03-01T03:15:37.164Z,52.31
2023-03-01T03:18:10.281Z,50.99
2023-03-01T03:20:39.038Z,51.12
2023-03-01T03:23:07.413Z,51.78
2023-03-01T03:25:38.974Z,52.83
2023-03-01T03:28:11.705Z,53.74
2023-03-01T03:30:41.696Z,54.85
2023-03-01T03:33:13.472Z,55.99
2023-03-01T03:35:45.395Z,56.96
2023-03-01T03:38:18.971Z,57.93
2023-03-01T03:40:53.880Z,58.75
2023-03-01T03:43:24.028Z,59.54
2023-03-01T03:45:52.654Z,64.12
2023-03-01T03:48:21.598Z,73.69
2023-03-01T03:50:52.295Z,73.38
2023-03-01T03:53:21.430Z,70.77
2023-03-01T03:55:52.865Z,66.60
2023-03-01T03:58:23.505Z,64.26
2023-03-01T04:00:54.342Z,59.51
2023-03-01T04:03:23.216Z,53.72
2023-03-01T04:05:52.011Z,52.61
2023-03-01T04:08:25.098Z,52.84
2023-03-01T04:10:58.084Z,53.23
2023-03-01T04:13:26.457Z,53.92
2023-03-01T04:15:55.449Z,54.84
2023-03-01T04:18:26.232Z,55.72
2023-03-01T04:20:56.583Z,56.64
2023-03-01T04:23:25.170Z,57.82
2023-03-01T04:25:56.335Z,58.70
2023-03-01T04:28:37.417Z,59.69
2023-03-01T04:31:16.841Z,60.17
2023-03-01T04:33:52.541Z,58.11
2023-03-01T04:36:23.766Z,60.75
2023-03-01T04:38:53.160Z,65.93
2023-03-01T04:41:24.462Z,75.39
2023-03-01T04:43:52.762Z,75.55
2023-03-01T04:46:22.647Z,72.20
2023-03-01T04:48:51.154Z,68.99
2023-03-01T04:51:19.715Z,66.35
2023-03-01T04:53:48.533Z,63.93
2023-03-01T04:56:18.929Z,57.67
2023-03-01T04:58:47.623Z,51.59
2023-03-01T05:01:20.940Z,50.59
2023-03-01T05:03:51.670Z,50.82
2023-03-01T05:06:20.435Z,51.28
2023-03-01T05:08:49.024Z,49.66
2023-03-01T05:11:17.201Z,52.57
2023-03-01T05:13:45.468Z,53.90
2023-03-01T05:16:13.748Z,54.90
2023-03-01T05:18:42.222Z,56.08
2023-03-01T05:21:12.980Z,57.13
2023-03-01T05:23:41.948Z,58.07
2023-03-01T05:26:25.835Z,59.00
2023-03-01T05:29:00.409Z,60.02
2023-03-01T05:31:29.180Z,66.02
2023-03-01T05:33:57.618Z,74.71
2023-03-01T05:36:25.851Z,74.13
2023-03-01T05:38:54.019Z,71.13
2023-03-01T05:41:22.394Z,69.34
2023-03-01T05:43:50.692Z,66.96
2023-03-01T05:46:18.981Z,64.52
2023-03-01T05:48:48.239Z,58.19
2023-03-01T05:51:16.520Z,52.04
2023-03-01T05:53:44.722Z,50.65
2023-03-01T05:56:12.860Z,50.77
2023-03-01T05:58:40.937Z,51.30
2023-03-01T06:01:13.586Z,52.06
2023-03-01T06:03:42.299Z,53.43
2023-03-01T06:06:10.474Z,55.08
2023-03-01T06:08:38.741Z,55.95
2023-03-01T06:11:08.243Z,56.85
2023-03-01T06:13:37.036Z,57.88
2023-03-01T06:16:07.459Z,58.77
2023-03-01T06:18:35.768Z,59.91
2023-03-01T06:21:04.625Z,64.71
2023-03-01T06:23:33.129Z,74.40
2023-03-01T06:26:02.095Z,74.43
2023-03-01T06:28:30.264Z,70.99
2023-03-01T06:30:58.482Z,68.24
2023-03-01T06:33:26.710Z,66.26
2023-03-01T06:35:58.190Z,64.13
2023-03-01T06:38:26.332Z,58.18
2023-03-01T06:40:56.325Z,52.04
2023-03-01T06:43:25.235Z,51.33
2023-03-01T06:45:53.512Z,51.83
2023-03-01T06:48:21.584Z,53.37
2023-03-01T06:50:49.849Z,54.92
2023-03-01T06:53:18.142Z,56.64
2023-03-01T06:55:46.309Z,58.02
2023-03-01T06:58:14.623Z,58.96
2023-03-01T07:00:44.184Z,63.41
2023-03-01T07:03:12.385Z,72.79
2023-03-01T07:05:41.443Z,72.04
2023-03-01T07:08:09.615Z,68.64
2023-03-01T07:10:37.787Z,65.74
2023-03-01T07:13:08.033Z,59.48
2023-03-01T07:15:36.186Z,53.78
2023-03-01T07:18:04.353Z,52.76
2023-03-01T07:20:32.433Z,53.14
2023-03-01T07:23:00.703Z,53.87
2023-03-01T07:25:28.971Z,54.80
2023-03-01T07:27:57.349Z,55.52
2023-03-01T07:30:28.530Z,56.76
2023-03-01T07:32:58.530Z,57.89
2023-03-01T07:35:28.202Z,59.09
2023-03-01T07:37:56.800Z,64.31
2023-03-01T07:40:24.871Z,73.09
2023-03-01T07:42:59.924Z,71.76
2023-03-01T07:45:28.818Z,68.81
2023-03-01T07:47:57.164Z,66.03
2023-03-01T07:50:25.645Z,64.12
2023-03-01T07:52:54.020Z,58.10
2023-03-01T07:55:22.199Z,53.37
2023-03-01T07:57:50.355Z,52.61
2023-03-01T08:00:19.046Z,53.03
2023-03-01T08:02:47.324Z,53.93
2023-03-01T08:05:15.906Z,55.05
2023-03-01T08:07:43.978Z,56.42
2023-03-01T08:10:12.574Z,58.39
2023-03-01T08:12:41.037Z,58.87
2023-03-01T08:15:09.938Z,59.59
2023-03-01T08:17:38.306Z,64.99
2023-03-01T08:20:08.287Z,72.01
2023-03-01T08:22:36.384Z,70.28
2023-03-01T08:25:05.272Z,67.79
2023-03-01T08:27:33.445Z,65.79
2023-03-01T08:30:01.728Z,62.93
2023-03-01T08:32:30.018Z,56.85
2023-03-01T08:34:58.474Z,51.64
2023-03-01T08:37:26.860Z,51.11
2023-03-01T08:39:56.147Z,50.94
2023-03-01T08:42:24.430Z,51.16
2023-03-01T08:44:52.598Z,52.76
2023-03-01T08:47:20.786Z,54.41
2023-03-01T08:49:50.993Z,57.30
2023-03-01T08:52:19.162Z,56.84
2023-03-01T08:54:49.060Z,56.67
2023-03-01T08:57:17.250Z,56.79
2023-03-01T08:59:45.426Z,56.38
2023-03-01T09:02:16.680Z,56.84
2023-03-01T09:04:45.556Z,56.92
2023-03-01T09:07:13.655Z,58.67
2023-03-01T09:09:42.108Z,57.72
2023-03-01T09:12:10.792Z,57.70
2023-03-01T09:14:39.971Z,57.85
2023-03-01T09:17:08.237Z,58.20
2023-03-01T09:19:36.515Z,58.42
2023-03-01T09:22:05.850Z,57.88
2023-03-01T09:24:34.314Z,57.27
2023-03-01T09:27:02.584Z,56.54
2023-03-01T09:29:30.867Z,56.31
2023-03-01T09:31:59.514Z,55.35
2023-03-01T09:34:27.842Z,55.28
2023-03-01T09:36:56.096Z,54.66
2023-03-01T09:39:24.780Z,54.66
2023-03-01T09:42:05.730Z,54.58
2023-03-01T09:44:40.078Z,54.30
2023-03-01T09:47:17.973Z,53.84
2023-03-01T09:49:53.800Z,53.00
2023-03-01T09:52:28.043Z,52.72
2023-03-01T09:54:59.494Z,53.59
2023-03-01T09:57:48.850Z,53.96
2023-03-01T10:00:29.215Z,53.91
2023-03-01T10:03:11.309Z,53.14
2023-03-01T10:06:05.487Z,52.52
2023-03-01T10:08:42.774Z,52.22
2023-03-01T10:11:38.697Z,51.85
2023-03-01T10:14:25.310Z,51.66
2023-03-01T10:17:06.281Z,51.63
2023-03-01T10:19:37.417Z,50.42
2023-03-01T10:22:15.512Z,50.02
2023-03-01T10:24:44.411Z,49.25
2023-03-01T10:27:18.524Z,49.39
2023-03-01T10:30:12.499Z,48.98
2023-03-01T10:32:41.191Z,48.12
2023-03-01T10:35:20.537Z,48.54
2023-03-01T10:37:59.753Z,47.56
2023-03-01T10:40:28.027Z,47.18
2023-03-01T10:42:59.604Z,45.81
2023-03-01T10:45:30.651Z,46.86
2023-03-01T10:48:20.615Z,46.60
2023-03-01T10:50:51.619Z,45.26
2023-03-01T10:53:30.217Z,44.70
2023-03-01T10:56:16.730Z,43.81
2023-03-01T10:59:07.053Z,46.84
2023-03-01T11:01:36.951Z,45.14
2023-03-01T11:04:08.211Z,45.94
2023-03-01T11:06:38.434Z,44.43
2023-03-01T11:09:21.549Z,43.48
2023-03-01T11:11:57.710Z,43.77
2023-03-01T11:14:28.602Z,44.19
2023-03-01T11:17:01.842Z,43.88
2023-03-01T11:19:30.110Z,42.74
2023-03-01T11:22:22.492Z,42.77
2023-03-01T11:25:08.565Z,42.51
2023-03-01T11:27:42.260Z,42.50
2023-03-01T11:30:22.816Z,41.97
2023-03-01T11:33:09.485Z,41.55
2023-03-01T11:35:44.442Z,41.19
2023-03-01T11:38:28.834Z,39.69
2023-03-01T11:41:16.867Z,39.97
2023-03-01T11:44:02.546Z,39.74
2023-03-01T11:46:33.897Z,39.70
2023-03-01T11:49:11.550Z,40.04
2023-03-01T11:51:54.983Z,39.89
2023-03-01T11:54:32.161Z,39.01
2023-03-01T11:57:31.271Z,37.88
2023-03-01T12:00:41.729Z,37.68
2023-03-01T12:03:26.378Z,37.90
2023-03-01T12:06:07.049Z,36.68
2023-03-01T12:08:41.336Z,36.51
2023-03-01T12:11:30.328Z,35.70
2023-03-01T12:14:07.816Z,35.61
2023-03-01T12:16:48.787Z,35.50
2023-03-01T12:19:36.811Z,35.55
2023-03-01T12:22:23.837Z,35.60
2023-03-01T12:25:22.335Z,34.86
2023-03-01T12:28:02.374Z,35.37
2023-03-01T12:30:49.081Z,34.69
2023-03-01T12:33:41.830Z,34.91
2023-03-01T12:36:54.036Z,35.44
2023-03-01T12:39:28.552Z,35.05
2023-03-01T12:42:02.460Z,34.87
2023-03-01T12:45:06.680Z,35.07
2023-03-01T12:47:56.452Z,34.54
2023-03-01T12:50:29.524Z,35.13
2023-03-01T12:52:58.432Z,34.58
2023-03-01T12:55:44.278Z,33.95
2023-03-01T12:58:47.251Z,34.41
2023-03-01T13:01:58.696Z,33.67
2023-03-01T13:04:54.415Z,34.02
2023-03-01T13:07:30.980Z,34.71
2023-03-01T13:10:02.643Z,34.35
2023-03-01T13:12:54.153Z,34.19
2023-03-01T13:15:25.224Z,33.73
2023-03-01T13:17:54.388Z,33.21
2023-03-01T13:20:36.486Z,33.18
2023-03-01T13:23:10.695Z,33.08
2023-03-01T13:26:05.899Z,33.24
2023-03-01T13:28:47.243Z,33.07
2023-03-01T13:31:22.169Z,32.36
2023-03-01T13:33:53.660Z,31.99
2023-03-01T13:36:32.757Z,31.51
2023-03-01T13:39:06.392Z,31.79
2023-03-01T13:41:40.704Z,31.80
2023-03-01T13:44:28.045Z,31.22
2023-03-01T13:47:18.638Z,31.34
2023-03-01T13:50:00.560Z,30.48
2023-03-01T13:52:43.850Z,31.17
2023-03-01T13:55:14.813Z,31.11
2023-03-01T13:57:46.035Z,30.79
2023-03-01T14:00:34.796Z,30.75
2023-03-01T14:03:09.207Z,30.22
2023-03-01T14:05:38.404Z,30.06
2023-03-01T14:08:20.514Z,30.40
2023-03-01T14:11:01.062Z,29.46
2023-03-01T14:13:38.755Z,30.85
2023-03-01T14:16:44.335Z,31.15
2023-03-01T14:19:32.620Z,31.03
2023-03-01T14:22:14.234Z,30.76
2023-03-01T14:24:50.308Z,30.28
2023-03-01T14:27:19.279Z,29.76
2023-03-01T14:29:59.120Z,29.78
2023-03-01T14:32:32.580Z,29.48
2023-03-01T14:35:01.524Z,29.45
2023-03-01T14:37:35.517Z,29.80
2023-03-01T14:40:05.801Z,29.55
2023-03-01T14:42:36.685Z,30.46
2023-03-01T14:45:05.977Z,30.76
2023-03-01T14:47:36.505Z,30.72
2023-03-01T14:50:19.641Z,31.51
2023-03-01T14:52:49.958Z,31.28
2023-03-01T14:55:19.564Z,30.67
2023-03-01T14:57:52.240Z,30.88
2023-03-01T15:00:23.951Z,30.42
2023-03-01T15:02:54.127Z,30.65
2023-03-01T15:05:42.150Z,30.65
2023-03-01T15:08:21.181Z,30.61
2023-03-01T15:11:08.991Z,30.52
2023-03-01T15:13:37.489Z,30.54
2023-03-01T15:16:32.810Z,31.04
2023-03-01T15:19:07.234Z,31.31
2023-03-01T15:21:38.934Z,31.33
2023-03-01T15:24:21.889Z,31.66
2023-03-01T15:27:08.130Z,32.12
2023-03-01T15:29:41.671Z,32.62
2023-03-01T15:32:31.471Z,32.86
2023-03-01T15:35:01.072Z,33.03
2023-03-01T15:37:50.557Z,33.14
2023-03-01T15:40:32.597Z,33.60
2023-03-01T15:43:40.225Z,34.13
2023-03-01T15:46:28.583Z,34.88
2023-03-01T15:49:05.143Z,35.69
2023-03-01T15:51:38.024Z,36.37
2023-03-01T15:54:12.142Z,36.87
2023-03-01T15:56:40.411Z,37.26
2023-03-01T15:59:13.092Z,37.86
2023-03-01T16:01:42.285Z,38.44
2023-03-01T16:04:21.812Z,39.13
2023-03-01T16:06:57.553Z,39.42
2023-03-01T16:09:26.673Z,40.10
2023-03-01T16:11:55.566Z,41.17
2023-03-01T16:14:23.734Z,41.77
2023-03-01T16:16:52.224Z,42.45
2023-03-01T16:19:20.397Z,43.38
2023-03-01T16:21:49.784Z,44.00
2023-03-01T16:24:18.370Z,44.28
2023-03-01T16:26:46.857Z,45.31
2023-03-01T16:29:15.940Z,45.87
2023-03-01T16:31:44.239Z,47.25
2023-03-01T16:34:12.701Z,48.25
2023-03-01T16:36:42.274Z,49.19
2023-03-01T16:39:10.787Z,49.81
2023-03-01T16:41:38.848Z,49.78
2023-03-01T16:44:06.921Z,50.67
2023-03-01T16:46:35.073Z,51.68
2023-03-01T16:49:04.203Z,52.34
2023-03-01T16:51:33.922Z,53.19
2023-03-01T16:54:03.195Z,53.47
2023-03-01T16:56:34.156Z,54.68
2023-03-01T16:59:04.638Z,55.44
2023-03-01T17:01:36.130Z,55.81
2023-03-01T17:04:05.105Z,56.66
2023-03-01T17:06:33.677Z,57.28
2023-03-01T17:09:01.961Z,57.61
2023-03-01T17:11:30.371Z,57.75
2023-03-01T17:13:58.912Z,58.27
2023-03-01T17:16:28.007Z,59.32
2023-03-01T17:18:56.689Z,60.27
2023-03-01T17:21:25.167Z,60.51
2023-03-01T17:23:56.720Z,60.79
2023-03-01T17:26:25.404Z,60.52
2023-03-01T17:28:53.590Z,64.97
2023-03-01T17:31:22.829Z,72.87
2023-03-01T17:33:52.589Z,71.69
2023-03-01T17:36:20.766Z,68.08
2023-03-01T17:38:50.168Z,64.70
2023-03-01T17:41:19.359Z,58.44
2023-03-01T17:43:48.039Z,52.30
2023-03-01T17:46:17.142Z,50.99
2023-03-01T17:48:45.403Z,51.26
2023-03-01T17:51:13.579Z,51.68
2023-03-01T17:53:41.850Z,52.07
2023-03-01T17:56:10.328Z,52.23
2023-03-01T17:58:39.534Z,53.01
2023-03-01T18:01:17.478Z,54.02
2023-03-01T18:03:47.586Z,54.77
2023-03-01T18:06:36.507Z,55.95
2023-03-01T18:09:05.307Z,55.94
2023-03-01T18:11:35.489Z,56.01
2023-03-01T18:14:04.829Z,57.34
2023-03-01T18:16:34.511Z,58.41
2023-03-01T18:19:03.324Z,59.37
2023-03-01T18:21:31.850Z,60.09
2023-03-01T18:24:00.574Z,64.27
2023-03-01T18:26:30.025Z,72.33
2023-03-01T18:29:01.360Z,72.43
2023-03-01T18:31:33.532Z,69.29
2023-03-01T18:34:02.198Z,66.14
2023-03-01T18:36:33.174Z,59.29
2023-03-01T18:39:03.775Z,53.02
2023-03-01T18:41:33.282Z,51.28
2023-03-01T18:44:02.844Z,51.11
2023-03-01T18:46:31.635Z,51.46
2023-03-01T18:49:00.222Z,52.02
2023-03-01T18:51:30.440Z,52.79
2023-03-01T18:53:59.117Z,54.08
2023-03-01T18:56:30.035Z,54.57
2023-03-01T18:58:59.632Z,55.28
2023-03-01T19:01:29.672Z,55.59
2023-03-01T19:03:58.469Z,56.35
2023-03-01T19:06:34.581Z,57.62
2023-03-01T19:09:03.929Z,58.76
2023-03-01T19:11:33.824Z,59.72
2023-03-01T19:14:03.451Z,60.40
2023-03-01T19:16:33.517Z,65.01
2023-03-01T19:19:04.595Z,72.48
2023-03-01T19:21:34.264Z,71.29
2023-03-01T19:24:02.817Z,68.38
2023-03-01T19:26:32.105Z,66.05
2023-03-01T19:29:01.085Z,60.70
2023-03-01T19:31:31.073Z,54.28
2023-03-01T19:34:11.127Z,52.71
2023-03-01T19:36:42.931Z,52.37
2023-03-01T19:39:13.812Z,53.12
2023-03-01T19:41:43.494Z,53.78
2023-03-01T19:44:12.757Z,54.13
2023-03-01T19:46:41.090Z,54.85
2023-03-01T19:49:10.008Z,55.95
2023-03-01T19:51:39.619Z,57.00
2023-03-01T19:54:10.014Z,58.29
2023-03-01T19:56:39.341Z,59.02
2023-03-01T19:59:07.935Z,59.91
2023-03-01T20:01:37.913Z,64.02
2023-03-01T20:04:06.815Z,71.61
2023-03-01T20:06:36.522Z,71.46
2023-03-01T20:09:19.111Z,69.58
2023-03-01T20:11:49.909Z,68.00
2023-03-01T20:14:18.763Z,64.92
2023-03-01T20:16:47.031Z,59.10
2023-03-01T20:19:15.427Z,53.09
2023-03-01T20:21:43.783Z,51.93
2023-03-01T20:24:12.063Z,52.10
2023-03-01T20:26:41.358Z,52.76
2023-03-01T20:29:09.941Z,53.58
2023-03-01T20:31:39.976Z,54.51
2023-03-01T20:34:08.536Z,55.31
2023-03-01T20:36:39.004Z,56.32
2023-03-01T20:39:07.955Z,57.30
2023-03-01T20:41:36.125Z,58.40
2023-03-01T20:44:06.780Z,59.51
2023-03-01T20:46:36.298Z,64.66
2023-03-01T20:49:05.889Z,73.14
2023-03-01T20:51:34.138Z,72.42
2023-03-01T20:54:02.724Z,69.51
2023-03-01T20:56:31.341Z,66.63
2023-03-01T20:59:08.561Z,64.37
2023-03-01T21:01:38.401Z,57.75
2023-03-01T21:04:07.087Z,52.05
2023-03-01T21:06:35.751Z,51.15
2023-03-01T21:09:04.346Z,51.50
2023-03-01T21:11:32.522Z,52.04
2023-03-01T21:14:01.005Z,53.01
2023-03-01T21:16:29.399Z,54.09
2023-03-01T21:19:01.750Z,55.08
2023-03-01T21:21:29.922Z,56.11
2023-03-01T21:23:58.098Z,57.64
2023-03-01T21:26:27.596Z,58.91
2023-03-01T21:29:02.811Z,59.88
2023-03-01T21:31:34.986Z,65.54
2023-03-01T21:34:06.093Z,73.65
2023-03-01T21:36:36.247Z,72.91
2023-03-01T21:39:06.088Z,70.11
2023-03-01T21:41:36.849Z,67.19
2023-03-01T21:44:07.403Z,64.92
2023-03-01T21:46:38.384Z,65.64
2023-03-01T21:49:07.791Z,56.40
2023-03-01T21:51:36.788Z,51.10
2023-03-01T21:54:05.922Z,50.30
2023-03-01T21:56:39.181Z,50.73
2023-03-01T21:59:09.354Z,51.23
2023-03-01T22:01:37.541Z,52.10
2023-03-01T22:04:06.017Z,52.99
2023-03-01T22:06:40.682Z,54.18
2023-03-01T22:09:09.437Z,55.11
2023-03-01T22:11:39.752Z,56.47
2023-03-01T22:14:08.431Z,57.68
2023-03-01T22:16:37.968Z,58.81
2023-03-01T22:19:07.643Z,60.06
2023-03-01T22:21:39.416Z,64.71
2023-03-01T22:24:08.815Z,72.49
2023-03-01T22:26:40.477Z,71.48
2023-03-01T22:29:14.045Z,68.79
2023-03-01T22:31:42.865Z,66.53
2023-03-01T22:34:11.734Z,64.33
2023-03-01T22:36:40.027Z,59.44
2023-03-01T22:39:08.392Z,54.12
2023-03-01T22:41:43.395Z,53.19
2023-03-01T22:44:12.697Z,53.34
2023-03-01T22:46:41.720Z,54.18
2023-03-01T22:49:10.410Z,54.81
2023-03-01T22:51:40.415Z,55.82
2023-03-01T22:54:09.820Z,56.82
2023-03-01T22:56:40.060Z,57.72
2023-03-01T22:59:10.715Z,58.80
2023-03-01T23:01:39.657Z,59.43
2023-03-01T23:04:08.563Z,57.31
2023-03-01T23:06:50.394Z,60.41
2023-03-01T23:09:21.177Z,66.21
2023-03-01T23:11:50.781Z,73.17
2023-03-01T23:14:19.867Z,72.96
2023-03-01T23:16:49.433Z,70.33
2023-03-01T23:19:18.262Z,67.96
2023-03-01T23:21:50.319Z,65.52
2023-03-01T23:24:20.649Z,64.28
2023-03-01T23:26:59.160Z,58.46
2023-03-01T23:29:27.434Z,53.65
2023-03-01T23:31:57.752Z,52.85
2023-03-01T23:34:26.670Z,53.02
2023-03-01T23:36:55.634Z,53.52
2023-03-01T23:39:23.715Z,54.28
2023-03-01T23:41:51.983Z,55.18
2023-03-01T23:44:21.088Z,55.94
2023-03-01T23:46:50.164Z,56.95
2023-03-01T23:49:20.569Z,57.97
2023-03-01T23:51:49.074Z,58.94
2023-03-01T23:54:19.612Z,59.89
2023-03-01T23:56:47.975Z,64.18
2023-03-01T23:59:19.088Z,73.38
